sensor_id;sensor_type;location;lat;lon;timestamp;P1;durP1;ratioP1;P2;durP2;ratioP2
40537;SDS011;27925;41.874;12.526;2024-01-25T08:46:20;19.02;;;10.13;;
40537;SDS011;27925;41.874;12.526;2024-01-25T08:48:46;19.20;;;10.25;;
40537;SDS011;27925;41.874;12.526;2024-01-25T08:51:11;26.85;;;11.38;;
40537;SDS011;27925;41.874;12.526;2024-01-25T08:53:37;20.75;;;9.98;;
40537;SDS011;27925;41.874;12.526;2024-01-25T08:56:03;30.58;;;10.77;;
40537;SDS011;27925;41.874;12.526;2024-01-25T08:58:29;20.77;;;9.75;;
40537;SDS011;27925;41.874;12.526;2024-01-25T09:00:55;20.25;;;9.88;;
40537;SDS011;27925;41.874;12.526;2024-01-25T09:03:21;21.40;;;11.07;;
40537;SDS011;27925;41.874;12.526;2024-01-25T09:05:47;22.50;;;10.48;;
40537;SDS011;27925;41.874;12.526;2024-01-25T09:08:14;20.67;;;10.73;;
40537;SDS011;27925;41.874;12.526;2024-01-25T09:10:40;20.52;;;11.07;;
40537;SDS011;27925;41.874;12.526;2024-01-25T09:13:06;29.40;;;12.30;;
40537;SDS011;27925;41.874;12.526;2024-01-25T09:15:33;23.50;;;11.52;;
40537;SDS011;27925;41.874;12.526;2024-01-25T09:17:59;26.80;;;12.35;;
40537;SDS011;27925;41.874;12.526;2024-01-25T09:20:24;27.35;;;13.07;;
40537;SDS011;27925;41.874;12.526;2024-01-25T09:22:50;17.92;;;10.60;;
40537;SDS011;27925;41.874;12.526;2024-01-25T09:25:18;102.53;;;18.23;;
40537;SDS011;27925;41.874;12.526;2024-01-25T09:27:44;29.63;;;13.20;;
40537;SDS011;27925;41.874;12.526;2024-01-25T09:30:10;28.30;;;13.15;;
40537;SDS011;27925;41.874;12.526;2024-01-25T09:32:36;25.48;;;12.82;;
40537;SDS011;27925;41.874;12.526;2024-01-25T09:35:02;21.25;;;11.57;;
40537;SDS011;27925;41.874;12.526;2024-01-25T09:37:28;22.40;;;12.90;;
40537;SDS011;27925;41.874;12.526;2024-01-25T09:39:53;20.85;;;12.60;;
40537;SDS011;27925;41.874;12.526;2024-01-25T09:42:19;21.67;;;12.40;;
40537;SDS011;27925;41.874;12.526;2024-01-25T09:44:45;22.73;;;13.07;;
40537;SDS011;27925;41.874;12.526;2024-01-25T09:47:11;23.60;;;12.30;;
40537;SDS011;27925;41.874;12.526;2024-01-25T09:49:37;21.90;;;13.77;;
40537;SDS011;27925;41.874;12.526;2024-01-25T09:52:04;22.67;;;12.65;;
40537;SDS011;27925;41.874;12.526;2024-01-25T09:54:31;21.23;;;12.70;;
40537;SDS011;27925;41.874;12.526;2024-01-25T09:57:13;23.02;;;13.23;;
40537;SDS011;27925;41.874;12.526;2024-01-25T09:59:43;22.98;;;12.80;;
40537;SDS011;27925;41.874;12.526;2024-01-25T10:02:09;22.05;;;13.00;;
40537;SDS011;27925;41.874;12.526;2024-01-25T10:04:36;21.13;;;12.77;;
40537;SDS011;27925;41.874;12.526;2024-01-25T10:07:01;25.13;;;12.18;;
40537;SDS011;27925;41.874;12.526;2024-01-25T10:09:28;21.38;;;11.48;;
40537;SDS011;27925;41.874;12.526;2024-01-25T10:12:06;23.20;;;11.30;;
40537;SDS011;27925;41.874;12.526;2024-01-25T10:14:32;28.02;;;11.40;;
40537;SDS011;27925;41.874;12.526;2024-01-25T10:16:57;24.58;;;11.80;;
40537;SDS011;27925;41.874;12.526;2024-01-25T10:19:25;19.25;;;11.80;;
40537;SDS011;27925;41.874;12.526;2024-01-25T10:21:52;26.02;;;14.02;;
40537;SDS011;27925;41.874;12.526;2024-01-25T10:24:18;20.08;;;13.60;;
40537;SDS011;27925;41.874;12.526;2024-01-25T10:26:43;22.15;;;12.82;;
40537;SDS011;27925;41.874;12.526;2024-01-25T10:29:09;20.13;;;12.32;;
40537;SDS011;27925;41.874;12.526;2024-01-25T10:31:38;27.23;;;13.13;;
40537;SDS011;27925;41.874;12.526;2024-01-25T10:34:08;30.90;;;13.57;;
40537;SDS011;27925;41.874;12.526;2024-01-25T10:36:38;20.35;;;12.05;;
40537;SDS011;27925;41.874;12.526;2024-01-25T10:39:05;26.63;;;13.00;;
40537;SDS011;27925;41.874;12.526;2024-01-25T10:41:34;22.67;;;12.20;;
40537;SDS011;27925;41.874;12.526;2024-01-25T10:44:00;28.35;;;12.02;;
40537;SDS011;27925;41.874;12.526;2024-01-25T10:46:27;22.60;;;11.63;;
40537;SDS011;27925;41.874;12.526;2024-01-25T10:48:56;23.23;;;10.73;;
40537;SDS011;27925;41.874;12.526;2024-01-25T10:51:23;19.00;;;10.50;;
40537;SDS011;27925;41.874;12.526;2024-01-25T10:53:51;18.80;;;10.85;;
40537;SDS011;27925;41.874;12.526;2024-01-25T10:56:17;18.45;;;9.73;;
40537;SDS011;27925;41.874;12.526;2024-01-25T10:58:43;16.58;;;9.25;;
40537;SDS011;27925;41.874;12.526;2024-01-25T11:01:10;19.42;;;9.45;;
40537;SDS011;27925;41.874;12.526;2024-01-25T11:03:36;22.02;;;10.35;;
40537;SDS011;27925;41.874;12.526;2024-01-25T11:06:08;19.98;;;10.63;;
40537;SDS011;27925;41.874;12.526;2024-01-25T11:08:36;24.20;;;10.32;;
40537;SDS011;27925;41.874;12.526;2024-01-25T11:11:05;18.73;;;10.35;;
40537;SDS011;27925;41.874;12.526;2024-01-25T11:13:34;19.98;;;10.88;;
40537;SDS011;27925;41.874;12.526;2024-01-25T11:18:51;19.80;;;9.43;;
40537;SDS011;27925;41.874;12.526;2024-01-25T11:21:23;17.77;;;9.48;;
40537;SDS011;27925;41.874;12.526;2024-01-25T11:23:58;18.48;;;9.00;;
40537;SDS011;27925;41.874;12.526;2024-01-25T11:26:25;19.60;;;9.60;;
40537;SDS011;27925;41.874;12.526;2024-01-25T11:28:51;22.15;;;9.70;;
40537;SDS011;27925;41.874;12.526;2024-01-25T11:31:17;20.73;;;9.63;;
40537;SDS011;27925;41.874;12.526;2024-01-25T11:33:43;22.50;;;10.02;;
40537;SDS011;27925;41.874;12.526;2024-01-25T11:36:10;17.67;;;8.95;;
40537;SDS011;27925;41.874;12.526;2024-01-25T11:38:38;22.60;;;9.30;;
40537;SDS011;27925;41.874;12.526;2024-01-25T11:41:04;14.50;;;7.57;;
40537;SDS011;27925;41.874;12.526;2024-01-25T11:43:30;19.83;;;7.78;;
40537;SDS011;27925;41.874;12.526;2024-01-25T11:45:55;19.30;;;8.48;;
40537;SDS011;27925;41.874;12.526;2024-01-25T11:48:21;15.88;;;8.45;;
40537;SDS011;27925;41.874;12.526;2024-01-25T11:50:47;20.30;;;8.55;;
40537;SDS011;27925;41.874;12.526;2024-01-25T11:53:13;15.73;;;7.85;;
40537;SDS011;27925;41.874;12.526;2024-01-25T11:55:39;14.35;;;6.85;;
40537;SDS011;27925;41.874;12.526;2024-01-25T11:58:04;19.98;;;6.63;;
40537;SDS011;27925;41.874;12.526;2024-01-25T12:00:30;17.48;;;7.10;;
40537;SDS011;27925;41.874;12.526;2024-01-25T12:02:56;16.05;;;6.63;;
40537;SDS011;27925;41.874;12.526;2024-01-25T12:05:22;18.63;;;7.03;;
40537;SDS011;27925;41.874;12.526;2024-01-25T12:07:48;15.35;;;5.97;;
40537;SDS011;27925;41.874;12.526;2024-01-25T12:10:16;16.20;;;5.80;;
40537;SDS011;27925;41.874;12.526;2024-01-25T12:12:45;16.90;;;5.30;;
40537;SDS011;27925;41.874;12.526;2024-01-25T12:15:10;18.55;;;6.65;;
40537;SDS011;27925;41.874;12.526;2024-01-25T12:17:36;18.40;;;5.85;;
40537;SDS011;27925;41.874;12.526;2024-01-25T12:20:05;13.73;;;4.68;;
40537;SDS011;27925;41.874;12.526;2024-01-25T12:22:35;19.00;;;4.78;;
40537;SDS011;27925;41.874;12.526;2024-01-25T12:25:02;18.13;;;5.07;;
40537;SDS011;27925;41.874;12.526;2024-01-25T12:27:31;14.85;;;5.05;;
40537;SDS011;27925;41.874;12.526;2024-01-25T12:29:57;29.38;;;6.88;;
40537;SDS011;27925;41.874;12.526;2024-01-25T12:32:23;17.08;;;5.72;;
40537;SDS011;27925;41.874;12.526;2024-01-25T12:34:55;16.95;;;5.28;;
40537;SDS011;27925;41.874;12.526;2024-01-25T12:37:22;22.40;;;6.75;;
40537;SDS011;27925;41.874;12.526;2024-01-25T12:39:52;16.05;;;5.35;;
40537;SDS011;27925;41.874;12.526;2024-01-25T12:42:19;19.23;;;5.60;;
40537;SDS011;27925;41.874;12.526;2024-01-25T12:44:48;16.85;;;5.10;;
40537;SDS011;27925;41.874;12.526;2024-01-25T12:47:15;18.90;;;5.10;;
40537;SDS011;27925;41.874;12.526;2024-01-25T12:49:44;21.77;;;6.50;;
40537;SDS011;27925;41.874;12.526;2024-01-25T12:52:11;18.52;;;5.32;;
40537;SDS011;27925;41.874;12.526;2024-01-25T12:54:38;16.50;;;5.28;;
40537;SDS011;27925;41.874;12.526;2024-01-25T12:57:04;16.10;;;5.55;;
40537;SDS011;27925;41.874;12.526;2024-01-25T12:59:31;19.40;;;6.03;;
40537;SDS011;27925;41.874;12.526;2024-01-25T13:01:58;13.13;;;5.00;;
40537;SDS011;27925;41.874;12.526;2024-01-25T13:04:24;13.35;;;5.10;;
40537;SDS011;27925;41.874;12.526;2024-01-25T13:06:52;15.75;;;5.40;;
40537;SDS011;27925;41.874;12.526;2024-01-25T13:09:20;15.27;;;5.40;;
40537;SDS011;27925;41.874;12.526;2024-01-25T13:11:46;12.25;;;5.03;;
40537;SDS011;27925;41.874;12.526;2024-01-25T13:14:12;19.85;;;5.90;;
40537;SDS011;27925;41.874;12.526;2024-01-25T13:16:37;23.10;;;5.80;;
40537;SDS011;27925;41.874;12.526;2024-01-25T13:19:03;14.65;;;4.90;;
40537;SDS011;27925;41.874;12.526;2024-01-25T13:21:29;14.52;;;4.80;;
40537;SDS011;27925;41.874;12.526;2024-01-25T13:23:56;15.70;;;5.18;;
40537;SDS011;27925;41.874;12.526;2024-01-25T13:26:22;16.15;;;6.47;;
40537;SDS011;27925;41.874;12.526;2024-01-25T13:28:47;16.42;;;5.03;;
40537;SDS011;27925;41.874;12.526;2024-01-25T13:31:13;16.02;;;5.50;;
40537;SDS011;27925;41.874;12.526;2024-01-25T13:33:39;14.90;;;5.78;;
40537;SDS011;27925;41.874;12.526;2024-01-25T13:36:04;18.88;;;5.85;;
40537;SDS011;27925;41.874;12.526;2024-01-25T13:38:34;16.48;;;4.43;;
40537;SDS011;27925;41.874;12.526;2024-01-25T13:41:00;17.17;;;4.80;;
40537;SDS011;27925;41.874;12.526;2024-01-25T13:43:25;13.23;;;3.60;;
40537;SDS011;27925;41.874;12.526;2024-01-25T13:45:52;15.93;;;3.90;;
40537;SDS011;27925;41.874;12.526;2024-01-25T13:48:19;12.38;;;4.78;;
40537;SDS011;27925;41.874;12.526;2024-01-25T13:50:44;16.42;;;4.93;;
40537;SDS011;27925;41.874;12.526;2024-01-25T13:53:10;14.10;;;4.32;;
40537;SDS011;27925;41.874;12.526;2024-01-25T13:55:36;16.85;;;4.72;;
40537;SDS011;27925;41.874;12.526;2024-01-25T13:58:01;15.07;;;4.25;;
40537;SDS011;27925;41.874;12.526;2024-01-25T14:00:28;19.30;;;4.85;;
40537;SDS011;27925;41.874;12.526;2024-01-25T14:02:54;16.08;;;3.83;;
40537;SDS011;27925;41.874;12.526;2024-01-25T14:05:20;18.20;;;5.00;;
40537;SDS011;27925;41.874;12.526;2024-01-25T14:07:45;18.63;;;4.53;;
40537;SDS011;27925;41.874;12.526;2024-01-25T14:10:11;13.95;;;4.00;;
40537;SDS011;27925;41.874;12.526;2024-01-25T14:12:37;12.93;;;4.10;;
40537;SDS011;27925;41.874;12.526;2024-01-25T14:15:03;12.63;;;3.25;;
40537;SDS011;27925;41.874;12.526;2024-01-25T14:17:29;12.63;;;3.47;;
40537;SDS011;27925;41.874;12.526;2024-01-25T14:19:55;16.50;;;4.47;;
40537;SDS011;27925;41.874;12.526;2024-01-25T14:22:21;11.90;;;3.30;;
40537;SDS011;27925;41.874;12.526;2024-01-25T14:24:47;20.27;;;4.70;;
40537;SDS011;27925;41.874;12.526;2024-01-25T14:27:13;18.00;;;4.13;;
40537;SDS011;27925;41.874;12.526;2024-01-25T14:29:39;12.80;;;3.80;;
40537;SDS011;27925;41.874;12.526;2024-01-25T14:32:06;13.60;;;4.20;;
40537;SDS011;27925;41.874;12.526;2024-01-25T14:34:33;14.73;;;4.47;;
40537;SDS011;27925;41.874;12.526;2024-01-25T14:36:59;12.27;;;4.32;;
40537;SDS011;27925;41.874;12.526;2024-01-25T14:39:24;13.57;;;4.72;;
40537;SDS011;27925;41.874;12.526;2024-01-25T14:41:50;14.02;;;5.10;;
40537;SDS011;27925;41.874;12.526;2024-01-25T14:44:18;13.57;;;4.97;;
40537;SDS011;27925;41.874;12.526;2024-01-25T14:46:45;14.25;;;4.85;;
40537;SDS011;27925;41.874;12.526;2024-01-25T14:49:11;19.90;;;5.43;;
40537;SDS011;27925;41.874;12.526;2024-01-25T14:51:37;15.63;;;5.68;;
40537;SDS011;27925;41.874;12.526;2024-01-25T14:54:02;13.73;;;5.93;;
40537;SDS011;27925;41.874;12.526;2024-01-25T14:56:28;18.33;;;6.05;;
40537;SDS011;27925;41.874;12.526;2024-01-25T14:58:54;14.88;;;5.95;;
40537;SDS011;27925;41.874;12.526;2024-01-25T15:01:20;22.70;;;6.38;;
40537;SDS011;27925;41.874;12.526;2024-01-25T15:03:53;18.30;;;6.70;;
40537;SDS011;27925;41.874;12.526;2024-01-25T15:06:19;16.83;;;6.47;;
40537;SDS011;27925;41.874;12.526;2024-01-25T15:08:45;17.33;;;6.30;;
40537;SDS011;27925;41.874;12.526;2024-01-25T15:11:11;14.48;;;6.05;;
40537;SDS011;27925;41.874;12.526;2024-01-25T15:13:37;14.05;;;5.97;;
40537;SDS011;27925;41.874;12.526;2024-01-25T15:16:03;15.90;;;6.20;;
40537;SDS011;27925;41.874;12.526;2024-01-25T15:18:29;14.50;;;6.50;;
40537;SDS011;27925;41.874;12.526;2024-01-25T15:20:55;18.90;;;6.60;;
40537;SDS011;27925;41.874;12.526;2024-01-25T15:23:22;19.38;;;6.47;;
40537;SDS011;27925;41.874;12.526;2024-01-25T15:25:48;16.48;;;6.43;;
40537;SDS011;27925;41.874;12.526;2024-01-25T15:28:15;15.40;;;5.80;;
40537;SDS011;27925;41.874;12.526;2024-01-25T15:30:40;16.75;;;6.63;;
40537;SDS011;27925;41.874;12.526;2024-01-25T15:33:06;15.70;;;6.40;;
40537;SDS011;27925;41.874;12.526;2024-01-25T15:35:32;17.88;;;7.00;;
40537;SDS011;27925;41.874;12.526;2024-01-25T15:37:58;16.00;;;6.65;;
40537;SDS011;27925;41.874;12.526;2024-01-25T15:40:30;15.35;;;5.95;;
40537;SDS011;27925;41.874;12.526;2024-01-25T15:42:56;14.40;;;6.07;;
40537;SDS011;27925;41.874;12.526;2024-01-25T15:45:22;19.13;;;6.00;;
40537;SDS011;27925;41.874;12.526;2024-01-25T15:47:48;39.10;;;24.10;;
40537;SDS011;27925;41.874;12.526;2024-01-25T15:50:14;16.65;;;7.75;;
40537;SDS011;27925;41.874;12.526;2024-01-25T15:52:40;21.33;;;8.20;;
40537;SDS011;27925;41.874;12.526;2024-01-25T15:55:08;18.15;;;6.93;;
40537;SDS011;27925;41.874;12.526;2024-01-25T15:57:34;12.25;;;5.45;;
40537;SDS011;27925;41.874;12.526;2024-01-25T16:00:00;15.70;;;6.00;;
40537;SDS011;27925;41.874;12.526;2024-01-25T16:02:26;17.50;;;5.72;;
40537;SDS011;27925;41.874;12.526;2024-01-25T16:04:52;12.18;;;5.72;;
40537;SDS011;27925;41.874;12.526;2024-01-25T16:07:18;15.38;;;6.25;;
40537;SDS011;27925;41.874;12.526;2024-01-25T16:09:44;15.10;;;6.50;;
40537;SDS011;27925;41.874;12.526;2024-01-25T16:12:11;20.15;;;6.88;;
40537;SDS011;27925;41.874;12.526;2024-01-25T16:14:37;24.48;;;7.22;;
40537;SDS011;27925;41.874;12.526;2024-01-25T16:17:03;20.40;;;7.20;;
40537;SDS011;27925;41.874;12.526;2024-01-25T16:19:29;18.10;;;7.18;;
40537;SDS011;27925;41.874;12.526;2024-01-25T16:21:55;20.25;;;7.32;;
40537;SDS011;27925;41.874;12.526;2024-01-25T16:24:21;19.13;;;6.70;;
40537;SDS011;27925;41.874;12.526;2024-01-25T16:26:46;18.33;;;6.80;;
40537;SDS011;27925;41.874;12.526;2024-01-25T16:29:12;18.55;;;7.45;;
40537;SDS011;27925;41.874;12.526;2024-01-25T16:31:38;27.02;;;9.93;;
40537;SDS011;27925;41.874;12.526;2024-01-25T16:34:04;18.25;;;7.75;;
40537;SDS011;27925;41.874;12.526;2024-01-25T16:36:30;18.25;;;6.78;;
40537;SDS011;27925;41.874;12.526;2024-01-25T16:38:56;17.80;;;6.72;;
40537;SDS011;27925;41.874;12.526;2024-01-25T16:41:22;17.88;;;7.28;;
40537;SDS011;27925;41.874;12.526;2024-01-25T16:43:47;16.25;;;7.30;;
40537;SDS011;27925;41.874;12.526;2024-01-25T16:46:14;18.67;;;7.03;;
40537;SDS011;27925;41.874;12.526;2024-01-25T16:48:39;17.73;;;6.35;;
40537;SDS011;27925;41.874;12.526;2024-01-25T16:51:06;18.92;;;6.88;;
40537;SDS011;27925;41.874;12.526;2024-01-25T16:53:31;14.23;;;6.32;;
40537;SDS011;27925;41.874;12.526;2024-01-25T16:55:58;14.95;;;7.38;;
40537;SDS011;27925;41.874;12.526;2024-01-25T16:58:23;19.90;;;9.23;;
40537;SDS011;27925;41.874;12.526;2024-01-25T17:00:49;20.38;;;9.57;;
40537;SDS011;27925;41.874;12.526;2024-01-25T17:03:16;22.10;;;9.63;;
40537;SDS011;27925;41.874;12.526;2024-01-25T17:05:42;22.33;;;9.10;;
40537;SDS011;27925;41.874;12.526;2024-01-25T17:08:08;19.65;;;8.93;;
40537;SDS011;27925;41.874;12.526;2024-01-25T17:10:34;23.95;;;9.30;;
40537;SDS011;27925;41.874;12.526;2024-01-25T17:12:59;26.48;;;8.63;;
40537;SDS011;27925;41.874;12.526;2024-01-25T17:15:25;21.38;;;8.50;;
40537;SDS011;27925;41.874;12.526;2024-01-25T17:17:51;20.92;;;8.57;;
40537;SDS011;27925;41.874;12.526;2024-01-25T17:20:17;20.13;;;8.02;;
40537;SDS011;27925;41.874;12.526;2024-01-25T17:22:43;22.92;;;9.07;;
40537;SDS011;27925;41.874;12.526;2024-01-25T17:25:09;27.85;;;9.50;;
40537;SDS011;27925;41.874;12.526;2024-01-25T17:27:35;35.92;;;9.07;;
40537;SDS011;27925;41.874;12.526;2024-01-25T17:30:00;23.52;;;9.48;;
40537;SDS011;27925;41.874;12.526;2024-01-25T17:32:26;25.65;;;9.07;;
40537;SDS011;27925;41.874;12.526;2024-01-25T17:34:53;24.42;;;9.40;;
40537;SDS011;27925;41.874;12.526;2024-01-25T17:37:20;26.70;;;9.52;;
40537;SDS011;27925;41.874;12.526;2024-01-25T17:39:46;23.25;;;9.98;;
40537;SDS011;27925;41.874;12.526;2024-01-25T17:42:12;26.63;;;9.90;;
40537;SDS011;27925;41.874;12.526;2024-01-25T17:44:37;24.83;;;9.90;;
40537;SDS011;27925;41.874;12.526;2024-01-25T17:47:04;29.45;;;9.85;;
40537;SDS011;27925;41.874;12.526;2024-01-25T17:49:30;24.48;;;10.30;;
40537;SDS011;27925;41.874;12.526;2024-01-25T17:51:56;26.90;;;9.68;;
40537;SDS011;27925;41.874;12.526;2024-01-25T17:54:21;24.20;;;8.00;;
40537;SDS011;27925;41.874;12.526;2024-01-25T17:56:47;27.42;;;9.57;;
40537;SDS011;27925;41.874;12.526;2024-01-25T17:59:13;23.45;;;9.68;;
40537;SDS011;27925;41.874;12.526;2024-01-25T18:01:39;25.58;;;9.32;;
40537;SDS011;27925;41.874;12.526;2024-01-25T18:04:04;28.17;;;10.68;;
40537;SDS011;27925;41.874;12.526;2024-01-25T18:06:30;20.05;;;9.60;;
40537;SDS011;27925;41.874;12.526;2024-01-25T18:08:56;28.73;;;10.65;;
40537;SDS011;27925;41.874;12.526;2024-01-25T18:11:21;30.30;;;11.10;;
40537;SDS011;27925;41.874;12.526;2024-01-25T18:13:47;44.50;;;26.65;;
40537;SDS011;27925;41.874;12.526;2024-01-25T18:16:13;21.55;;;9.95;;
40537;SDS011;27925;41.874;12.526;2024-01-25T18:18:39;23.63;;;9.90;;
40537;SDS011;27925;41.874;12.526;2024-01-25T18:21:05;25.42;;;9.32;;
40537;SDS011;27925;41.874;12.526;2024-01-25T18:23:31;28.42;;;12.00;;
40537;SDS011;27925;41.874;12.526;2024-01-25T21:10:57;47.40;;;23.20;;
40537;SDS011;27925;41.874;12.526;2024-01-25T21:13:23;41.30;;;22.10;;
40537;SDS011;27925;41.874;12.526;2024-01-25T21:15:49;38.28;;;21.48;;
40537;SDS011;27925;41.874;12.526;2024-01-25T21:18:15;39.38;;;21.67;;
40537;SDS011;27925;41.874;12.526;2024-01-25T21:20:41;34.75;;;19.58;;
40537;SDS011;27925;41.874;12.526;2024-01-25T21:23:06;46.97;;;22.48;;
40537;SDS011;27925;41.874;12.526;2024-01-25T21:25:32;36.78;;;20.17;;
40537;SDS011;27925;41.874;12.526;2024-01-25T21:27:58;43.33;;;20.75;;
40537;SDS011;27925;41.874;12.526;2024-01-25T21:30:25;34.35;;;20.33;;
40537;SDS011;27925;41.874;12.526;2024-01-25T21:32:51;39.28;;;20.13;;
40537;SDS011;27925;41.874;12.526;2024-01-25T21:35:16;40.08;;;20.75;;
40537;SDS011;27925;41.874;12.526;2024-01-25T21:37:42;39.97;;;21.80;;
40537;SDS011;27925;41.874;12.526;2024-01-25T21:40:08;44.33;;;21.50;;
40537;SDS011;27925;41.874;12.526;2024-01-25T21:42:34;37.05;;;21.20;;
40537;SDS011;27925;41.874;12.526;2024-01-25T21:45:05;33.85;;;20.63;;
40537;SDS011;27925;41.874;12.526;2024-01-25T21:47:32;36.25;;;21.08;;
40537;SDS011;27925;41.874;12.526;2024-01-25T21:49:57;36.92;;;22.25;;
40537;SDS011;27925;41.874;12.526;2024-01-25T21:52:23;37.60;;;22.63;;
40537;SDS011;27925;41.874;12.526;2024-01-25T21:54:49;36.90;;;21.90;;
40537;SDS011;27925;41.874;12.526;2024-01-25T21:57:15;37.05;;;22.38;;
40537;SDS011;27925;41.874;12.526;2024-01-25T21:59:43;37.60;;;21.08;;
40537;SDS011;27925;41.874;12.526;2024-01-25T22:02:08;36.28;;;22.70;;
40537;SDS011;27925;41.874;12.526;2024-01-25T22:04:34;37.72;;;22.45;;
40537;SDS011;27925;41.874;12.526;2024-01-25T22:07:00;32.55;;;21.10;;
40537;SDS011;27925;41.874;12.526;2024-01-25T22:09:25;31.83;;;21.02;;
40537;SDS011;27925;41.874;12.526;2024-01-25T22:11:51;36.30;;;22.15;;
40537;SDS011;27925;41.874;12.526;2024-01-25T22:14:17;35.50;;;21.55;;
40537;SDS011;27925;41.874;12.526;2024-01-25T22:16:42;33.65;;;22.17;;
40537;SDS011;27925;41.874;12.526;2024-01-25T22:19:08;35.58;;;22.52;;
40537;SDS011;27925;41.874;12.526;2024-01-25T22:21:34;34.97;;;22.30;;
40537;SDS011;27925;41.874;12.526;2024-01-25T22:23:59;36.10;;;22.77;;
40537;SDS011;27925;41.874;12.526;2024-01-25T22:26:25;36.92;;;23.10;;
40537;SDS011;27925;41.874;12.526;2024-01-25T22:28:51;37.58;;;22.60;;
40537;SDS011;27925;41.874;12.526;2024-01-25T22:31:16;37.30;;;23.45;;
40537;SDS011;27925;41.874;12.526;2024-01-25T22:33:42;34.80;;;21.83;;
40537;SDS011;27925;41.874;12.526;2024-01-25T22:36:09;38.88;;;22.45;;
40537;SDS011;27925;41.874;12.526;2024-01-25T22:38:35;38.70;;;23.88;;
40537;SDS011;27925;41.874;12.526;2024-01-25T22:41:01;38.20;;;23.52;;
40537;SDS011;27925;41.874;12.526;2024-01-25T22:43:26;41.05;;;23.08;;
40537;SDS011;27925;41.874;12.526;2024-01-25T22:45:53;35.40;;;22.77;;
40537;SDS011;27925;41.874;12.526;2024-01-25T22:48:19;38.13;;;22.70;;
40537;SDS011;27925;41.874;12.526;2024-01-25T22:50:45;36.33;;;23.67;;
40537;SDS011;27925;41.874;12.526;2024-01-25T22:53:10;39.03;;;23.30;;
40537;SDS011;27925;41.874;12.526;2024-01-25T22:55:36;40.17;;;23.60;;
40537;SDS011;27925;41.874;12.526;2024-01-25T22:58:02;38.72;;;23.33;;
40537;SDS011;27925;41.874;12.526;2024-01-25T23:00:28;40.65;;;24.15;;
40537;SDS011;27925;41.874;12.526;2024-01-25T23:02:56;38.80;;;23.30;;
40537;SDS011;27925;41.874;12.526;2024-01-25T23:05:22;37.67;;;23.25;;
40537;SDS011;27925;41.874;12.526;2024-01-25T23:07:48;36.17;;;22.95;;
40537;SDS011;27925;41.874;12.526;2024-01-25T23:10:15;38.60;;;23.42;;
40537;SDS011;27925;41.874;12.526;2024-01-25T23:12:44;39.05;;;23.02;;
40537;SDS011;27925;41.874;12.526;2024-01-25T23:15:13;34.42;;;21.92;;
40537;SDS011;27925;41.874;12.526;2024-01-25T23:17:40;40.85;;;23.60;;
40537;SDS011;27925;41.874;12.526;2024-01-25T23:20:06;40.63;;;23.20;;
40537;SDS011;27925;41.874;12.526;2024-01-25T23:22:33;37.85;;;21.80;;
40537;SDS011;27925;41.874;12.526;2024-01-25T23:25:00;36.15;;;23.00;;
40537;SDS011;27925;41.874;12.526;2024-01-25T23:27:26;38.00;;;23.15;;
40537;SDS011;27925;41.874;12.526;2024-01-25T23:29:52;43.63;;;23.67;;
40537;SDS011;27925;41.874;12.526;2024-01-25T23:32:19;43.15;;;24.10;;
40537;SDS011;27925;41.874;12.526;2024-01-25T23:34:45;36.20;;;22.50;;
40537;SDS011;27925;41.874;12.526;2024-01-25T23:37:11;38.40;;;22.92;;
40537;SDS011;27925;41.874;12.526;2024-01-25T23:39:37;38.67;;;24.00;;
40537;SDS011;27925;41.874;12.526;2024-01-25T23:42:03;36.28;;;25.10;;
40537;SDS011;27925;41.874;12.526;2024-01-25T23:44:29;41.28;;;23.05;;
40537;SDS011;27925;41.874;12.526;2024-01-25T23:46:54;41.92;;;23.95;;
40537;SDS011;27925;41.874;12.526;2024-01-25T23:49:20;36.83;;;24.27;;
40537;SDS011;27925;41.874;12.526;2024-01-25T23:51:46;39.70;;;23.90;;
40537;SDS011;27925;41.874;12.526;2024-01-25T23:54:12;41.88;;;24.20;;
40537;SDS011;27925;41.874;12.526;2024-01-25T23:56:38;42.05;;;24.30;;
40537;SDS011;27925;41.874;12.526;2024-01-25T23:59:05;37.53;;;25.33;;
